• Join FlightAware (Why Join?)
  • Login
  • US Flag 
07:10PM EDT


 

Airport Tracker/Info


-or-


 

Live Flight TrackerFlight Track Log ✈ FFT783 ✈ 01-Jul-2013 ✈ KDEN - KLAS

Flight Track Log - Related Links

Times and Time Zones

All times are in EDT time to prevent confusion due to time zone crossing. See the FFT783 flight status page for this flight to view local times or setup timezone preferences in your user account.

Time Position Orientation Groundspeed Altitude Reporting Facility
EDT Latitude Longitude Course Direction KTS MPH feet Rate Location/Type
11:41AM 39.8560 -104.6740 70° East 34 39  Level FlightAware
11:41AM 39.8570 -104.6720 57° Northeast 18 21 780 Level FlightAware
11:44AM 39.8111 -104.9391 257° West  Level FlightAware Approximate
11:44AM 39.8650 -104.6620 259° West 30 35  Level FlightAware
11:45AM 39.7897 -105.0674 259° West  Level FlightAware Approximate
11:45AM 39.8650 -104.6580 90° East 30 35  Level FlightAware
11:47AM 39.8032 -104.8640 257° West  Level Estimated
11:48AM 39.7663 -104.9862 259° West  Level Estimated
11:48AM 39.8250 -104.6430 270° West 168 193 6,000  Level FlightAware
11:49AM 39.7665 -105.1174 270° West  Level FlightAware Approximate
11:49AM 39.8040 -104.6520 198° South 202 232 6,400  Level FlightAware
11:49AM 39.7940 -104.6660 227° Southwest 220 253 6,700 840 Climbing FlightAware
11:50AM 39.7730 -104.6930 225° Southwest 263 303 7,000 1,260 Climbing FlightAware
11:50AM 39.7620 -104.7150 237° Southwest 272 313 7,600 2,340 Climbing FlightAware
11:50AM 39.7580 -104.7330 254° West 277 319 8,100 2,520 Climbing FlightAware
11:51AM 39.7620 -104.7850 276° West 287 330 9,400 2,460 Climbing FlightAware
11:51AM 39.7680 -104.8510 277° West 301 346 10,900 2,460 Climbing FlightAware
11:52AM 39.7730 -104.9120 276° West 305 351 12,400 2,700 Climbing FlightAware
11:53AM 39.7720 -105.0020 269° West 309 356 14,600 2,040 Climbing FlightAware
11:53AM 39.7640 -105.0760 262° West 342 394 15,400 1,200 Climbing FlightAware
11:54AM 39.7570 -105.1460 263° West 365 420 16,100 1,680 Climbing FlightAware
11:55AM 39.7460 -105.2440 262° West 376 433 17,600 1,920 Climbing FlightAware
11:55AM 39.7360 -105.3350 262° West 383 441 18,800 1,740 Climbing FlightAware
11:56AM 39.7250 -105.4360 262° West 394 453 20,100 1,740 Climbing FlightAware
11:57AM 39.7130 -105.5410 262° West 403 464 21,400 1,680 Climbing FlightAware
11:57AM 39.7030 -105.6340 262° West 411 473 22,400 1,500 Climbing FlightAware
11:58AM 39.6910 -105.7430 262° West 420 483 23,500 1,500 Climbing FlightAware
11:59AM 39.6790 -105.8520 262° West 426 490 24,600 1,440 Climbing FlightAware
11:59AM 39.6680 -105.9500 262° West 433 498 25,500 1,260 Climbing FlightAware
12:00PM 39.6560 -106.0570 262° West 439 505 26,300 1,200 Climbing FlightAware
12:01PM 39.6430 -106.1680 261° West 444 511 27,200 1,320 Climbing FlightAware
12:01PM 39.6340 -106.2440 261° West 447 514 27,900 1,320 Climbing FlightAware
12:02PM 39.6130 -106.3510 256° West 456 525 28,800 1,080 Climbing FlightAware
12:03PM 39.5770 -106.4670 248° West 468 539 29,500 1,020 Climbing FlightAware
12:03PM 39.5420 -106.5760 247° West 473 544 30,300 1,140 Climbing FlightAware
12:04PM 39.5080 -106.6830 248° West 473 544 31,100 1,500 Climbing FlightAware
12:05PM 39.4720 -106.7930 247° West 463 533 32,400 1,380 Climbing FlightAware
12:05PM 39.4400 -106.8960 248° West 462 532 33,100 1,140 Climbing FlightAware
12:06PM 39.4120 -107.0050 252° West 456 525 34,000 1,020 Climbing FlightAware
12:07PM 39.3747 -107.1525 252° West 453 521 34,800 900 Climbing Denver Center
12:08PM 39.3364 -107.3011 252° West 455 524 35,900 480 Climbing Denver Center
12:09PM 39.2925 -107.4739 252° West 453 521 36,000  Climbing Denver Center
12:10PM 39.2489 -107.6447 252° West 448 516 36,000  Level Denver Center
12:11PM 39.2050 -107.8172 252° West 452 520 36,000  Level Denver Center
12:13PM 39.1483 -108.0358 252° West 451 519 36,000  Level Salt Lake Center
12:14PM 39.1233 -108.1328 252° West 442 509 36,000  Level Denver Center
12:15PM 39.0861 -108.2781 252° West 444 511 36,000  Level Denver Center
12:16PM 39.0322 -108.4761 251° West 456 525 36,000  Level Denver Center
12:17PM 38.9939 -108.6217 251° West 447 514 36,000  Level Denver Center
12:18PM 38.9486 -108.7914 251° West 448 516 36,000  Level Denver Center
12:19PM 38.9158 -108.9122 251° West 447 514 36,000  Level Denver Center
12:20PM 38.8639 -109.1042 251° West 443 510 36,000  Level Denver Center
12:21PM 38.8253 -109.2492 251° West 447 514 36,000  Level Denver Center
12:22PM 38.7814 -109.3892 248° West 444 511 36,000  Level Denver Center
12:23PM 38.7128 -109.5458 241° Southwest 454 522 36,000  Level Denver Center
12:24PM 38.6533 -109.6778 240° Southwest 447 514 36,000  Level Denver Center
12:25PM 38.5844 -109.8353 241° Southwest 453 521 36,000  Level Denver Center
12:26PM 38.5242 -109.9697 240° Southwest 454 522 36,000  Level Denver Center
12:27PM 38.4553 -110.1253 241° Southwest 451 519 36,000  Level Denver Center
12:28PM 38.3956 -110.2578 240° Southwest 449 517 36,000  Level Denver Center
12:29PM 38.3256 -110.4147 240° Southwest 455 524 36,000  Level Denver Center
12:30PM 38.2647 -110.5481 240° Southwest 455 524 36,000  Level Denver Center
12:32PM 38.1867 -110.7275 241° Southwest 454 522 36,000  Level Salt Lake Center
12:33PM 38.1156 -110.8814 240° Southwest 452 520 36,000 -240 Level Salt Lake Center
12:34PM 38.0569 -111.0097 240° Southwest 451 519 35,600 -660 Descending Salt Lake Center
12:35PM 37.9944 -111.1456 240° Southwest 448 516 34,700 -1,020 Descending Salt Lake Center
12:37PM 37.8539 -111.4439 239° Southwest 448 516 32,500 -1,140 Descending Salt Lake Center
12:38PM 37.7950 -111.5783 241° Southwest 439 505 31,200 -1,260 Descending Salt Lake Center
12:39PM 37.7325 -111.7061 238° Southwest 430 495 30,000 -600 Descending Salt Lake Center
12:40PM 37.6725 -111.8356 240° Southwest 427 491 30,000  Level Salt Lake Center
12:42PM 37.5506 -112.0919 239° Southwest 425 489 30,000  Level Denver Center
12:43PM 37.4744 -112.2464 238° Southwest 432 497 30,000 -300 Level Los Angeles Center
12:49PM 37.0930 -113.0410 238° Southwest 439 505 28,000 -360 Descending FlightAware
12:50PM 37.0470 -113.1350 239° Southwest 434 499 28,000  Level FlightAware
12:50PM 37.0060 -113.2190 239° Southwest 434 499 28,000  Level FlightAware
12:51PM 36.9660 -113.3000 238° Southwest 434 499 28,000 -300 Level FlightAware
12:52PM 36.9180 -113.3980 239° Southwest 428 493 27,600 -1,020 Descending FlightAware
12:52PM 36.8750 -113.4850 238° Southwest 421 484 26,600 -1,980 Descending FlightAware
12:53PM 36.8380 -113.5600 238° Southwest 439 505 25,100 -2,160 Descending FlightAware
12:54PM 36.7870 -113.6620 238° Southwest 444 511 23,700 -2,100 Descending FlightAware
12:55PM 36.7430 -113.7500 238° Southwest 435 501 22,100 -2,340 Descending FlightAware
12:55PM 36.7000 -113.8370 238° Southwest 428 493 20,600 -2,100 Descending FlightAware
12:56PM 36.6650 -113.9060 238° Southwest 421 484 19,500 -2,040 Descending FlightAware
12:57PM 36.6190 -113.9990 238° Southwest 413 475 17,900 -2,100 Descending FlightAware
12:57PM 36.5770 -114.0810 237° Southwest 404 465 16,600 -1,860 Descending FlightAware
12:58PM 36.5370 -114.1690 241° Southwest 396 456 15,300 -1,800 Descending FlightAware
12:59PM 36.5020 -114.2470 241° Southwest 389 448 14,100 -1,680 Descending FlightAware
12:59PM 36.4660 -114.3240 240° Southwest 377 434 13,100 -1,080 Descending FlightAware
01:00PM 36.4310 -114.4020 241° Southwest 341 392 12,600 -720 Descending FlightAware
01:01PM 36.4060 -114.4560 240° Southwest 319 367 12,200 -600 Descending FlightAware
01:01PM 36.3880 -114.4770 223° Southwest 321 369 12,100 -240 Descending FlightAware
01:01PM 36.3650 -114.4880 201° Southwest 322 371 12,100 -660 Level FlightAware
01:02PM 36.3080 -114.4940 185° South 303 349 11,500 -900 Descending FlightAware
01:02PM 36.2610 -114.4980 184° South 269 310 11,000 -1,020 Descending FlightAware
01:03PM 36.2310 -114.5090 196° South 254 292 10,500 -1,020 Descending FlightAware
01:03PM 36.2210 -114.5270 235° Southwest 241 277 10,300 -900 Descending FlightAware
01:03PM 36.2180 -114.5430 257° West 234 269 10,100 -1,080 Descending FlightAware
01:04PM 36.2140 -114.5800 262° West 229 264 9,600 -1,080 Descending FlightAware
01:04PM 36.2100 -114.6100 261° West 225 259 9,200 -600 Descending FlightAware
01:05PM 36.2060 -114.6470 262° West 228 262 9,100 -420 Descending FlightAware
01:05PM 36.2020 -114.6890 263° West 216 249 8,800 -720 Descending FlightAware
01:06PM 36.1930 -114.7220 251° West 202 232 8,400 -780 Descending FlightAware
01:06PM 36.1860 -114.7520 254° West 193 222 8,100 -360 Descending FlightAware
01:07PM 36.1780 -114.7820 252° West 194 223 8,100 -300 Level FlightAware
01:07PM 36.1750 -114.7930 251° West 193 222 7,900 -1,080 Descending FlightAware
01:07PM 36.1690 -114.8180 253° West 193 222 7,500 -1,080 Descending FlightAware
01:08PM 36.1610 -114.8470 251° West 193 222 7,000 -1,080 Descending FlightAware
01:08PM 36.1540 -114.8760 253° West 188 216 6,500 -1,020 Descending FlightAware
01:09PM 36.1460 -114.9050 251° West 186 214 6,100 -480 Descending FlightAware
01:09PM 36.1390 -114.9320 252° West 183 211 6,100  Level FlightAware
01:09PM 36.1340 -114.9520 253° West 185 213 6,100 -360 Level FlightAware
01:10PM 36.1330 -114.9670 265° West 185 213 5,900 -1,260 Descending FlightAware
01:10PM 36.1350 -115.0000 274° West 190 219 5,200 -1,320 Descending FlightAware
01:10PM 36.1370 -115.0230 276° West 186 214 4,800 -1,440 Descending FlightAware
01:11PM 36.1390 -115.0590 274° West 182 209 3,900 -1,260 Descending FlightAware
01:11PM 36.1400 -115.0830 273° West 175 201 3,600 -660 Descending FlightAware
01:12PM 36.1340 -115.1140 257° West 167 192 3,300 -780 Descending FlightAware
01:12PM 36.1240 -115.1380 243° Southwest 156 180 2,800 -900 Descending FlightAware
01:13PM 36.1080 -115.1480 207° Southwest 157 181 2,500 -540 Descending FlightAware
01:14PM 36.0820 -115.1630 205° Southwest 157 181 2,200 -420 Descending FlightAware
01:21PM 36.0801 -115.1523 219° Southwest  Level Estimated
01:22PM 36.0801 -115.1523 219° Southwest  Level Estimated